sensor_id;sensor_type;location;lat;lon;timestamp;temperature;humidity
47174;DHT22;36730;49.036;9.094;2023-04-24T00:00:19;23.10;57.90
47174;DHT22;36730;49.036;9.094;2023-04-24T00:02:45;23.10;58.00
47174;DHT22;36730;49.036;9.094;2023-04-24T00:05:14;23.10;57.90
47174;DHT22;36730;49.036;9.094;2023-04-24T00:07:40;23.10;57.80
47174;DHT22;36730;49.036;9.094;2023-04-24T00:10:06;23.10;57.90
47174;DHT22;36730;49.036;9.094;2023-04-24T00:12:31;23.10;57.90
47174;DHT22;36730;49.036;9.094;2023-04-24T00:14:57;23.10;57.90
47174;DHT22;36730;49.036;9.094;2023-04-24T00:17:22;23.20;58.00
47174;DHT22;36730;49.036;9.094;2023-04-24T00:19:48;23.10;58.00
47174;DHT22;36730;49.036;9.094;2023-04-24T00:22:15;23.10;58.00
47174;DHT22;36730;49.036;9.094;2023-04-24T00:24:41;23.10;57.90
47174;DHT22;36730;49.036;9.094;2023-04-24T00:27:06;23.10;57.90
47174;DHT22;36730;49.036;9.094;2023-04-24T00:29:31;23.00;57.90
47174;DHT22;36730;49.036;9.094;2023-04-24T00:31:57;23.00;57.90
47174;DHT22;36730;49.036;9.094;2023-04-24T00:34:23;23.10;58.00
47174;DHT22;36730;49.036;9.094;2023-04-24T00:36:48;23.00;57.90
47174;DHT22;36730;49.036;9.094;2023-04-24T00:39:20;23.00;57.90
47174;DHT22;36730;49.036;9.094;2023-04-24T00:41:46;23.00;58.00
47174;DHT22;36730;49.036;9.094;2023-04-24T00:44:12;23.00;58.00
47174;DHT22;36730;49.036;9.094;2023-04-24T00:46:37;23.00;57.90
47174;DHT22;36730;49.036;9.094;2023-04-24T00:49:04;23.00;58.00
47174;DHT22;36730;49.036;9.094;2023-04-24T00:51:30;23.00;58.00
47174;DHT22;36730;49.036;9.094;2023-04-24T00:53:58;23.00;58.60
47174;DHT22;36730;49.036;9.094;2023-04-24T00:56:23;23.00;58.00
47174;DHT22;36730;49.036;9.094;2023-04-24T00:58:49;23.00;58.00
47174;DHT22;36730;49.036;9.094;2023-04-24T01:01:15;23.00;58.00
47174;DHT22;36730;49.036;9.094;2023-04-24T01:03:40;23.00;58.00
47174;DHT22;36730;49.036;9.094;2023-04-24T01:06:06;22.90;58.00
47174;DHT22;36730;49.036;9.094;2023-04-24T01:08:32;22.90;58.00
47174;DHT22;36730;49.036;9.094;2023-04-24T01:10:57;23.00;58.10
47174;DHT22;36730;49.036;9.094;2023-04-24T01:13:23;23.00;58.00
47174;DHT22;36730;49.036;9.094;2023-04-24T01:15:49;23.00;58.00
47174;DHT22;36730;49.036;9.094;2023-04-24T01:18:15;22.90;58.00
47174;DHT22;36730;49.036;9.094;2023-04-24T01:20:41;22.90;58.10
47174;DHT22;36730;49.036;9.094;2023-04-24T01:23:07;22.90;58.00
47174;DHT22;36730;49.036;9.094;2023-04-24T01:25:33;22.90;58.10
47174;DHT22;36730;49.036;9.094;2023-04-24T01:27:59;22.90;58.10
47174;DHT22;36730;49.036;9.094;2023-04-24T01:30:25;22.90;58.10
47174;DHT22;36730;49.036;9.094;2023-04-24T01:32:51;22.90;58.20
47174;DHT22;36730;49.036;9.094;2023-04-24T01:35:17;22.90;58.80
47174;DHT22;36730;49.036;9.094;2023-04-24T01:37:42;22.90;58.10
47174;DHT22;36730;49.036;9.094;2023-04-24T01:40:08;22.90;58.20
47174;DHT22;36730;49.036;9.094;2023-04-24T01:42:34;22.90;58.20
47174;DHT22;36730;49.036;9.094;2023-04-24T01:44:59;22.80;58.30
47174;DHT22;36730;49.036;9.094;2023-04-24T01:47:25;22.80;58.20
47174;DHT22;36730;49.036;9.094;2023-04-24T01:49:51;22.90;58.30
47174;DHT22;36730;49.036;9.094;2023-04-24T01:52:16;22.80;58.20
47174;DHT22;36730;49.036;9.094;2023-04-24T01:54:43;22.80;58.10
47174;DHT22;36730;49.036;9.094;2023-04-24T01:57:08;22.80;58.20
47174;DHT22;36730;49.036;9.094;2023-04-24T01:59:34;22.90;58.20
47174;DHT22;36730;49.036;9.094;2023-04-24T02:01:59;22.80;58.10
47174;DHT22;36730;49.036;9.094;2023-04-24T02:04:25;22.80;58.10
47174;DHT22;36730;49.036;9.094;2023-04-24T02:06:50;22.80;58.20
47174;DHT22;36730;49.036;9.094;2023-04-24T02:09:16;22.80;58.10
47174;DHT22;36730;49.036;9.094;2023-04-24T02:11:41;22.80;58.20
47174;DHT22;36730;49.036;9.094;2023-04-24T02:14:07;22.80;58.20
47174;DHT22;36730;49.036;9.094;2023-04-24T02:16:32;22.70;58.10
47174;DHT22;36730;49.036;9.094;2023-04-24T02:18:59;22.80;58.20
47174;DHT22;36730;49.036;9.094;2023-04-24T02:21:24;22.70;58.10
47174;DHT22;36730;49.036;9.094;2023-04-24T02:23:50;22.70;58.20
47174;DHT22;36730;49.036;9.094;2023-04-24T02:26:16;22.70;58.10
47174;DHT22;36730;49.036;9.094;2023-04-24T02:28:41;22.70;58.20
47174;DHT22;36730;49.036;9.094;2023-04-24T02:31:07;22.70;58.90
47174;DHT22;36730;49.036;9.094;2023-04-24T02:33:32;22.70;58.30
47174;DHT22;36730;49.036;9.094;2023-04-24T02:35:58;22.70;58.30
47174;DHT22;36730;49.036;9.094;2023-04-24T02:38:23;22.70;58.30
47174;DHT22;36730;49.036;9.094;2023-04-24T02:40:49;22.70;58.60
47174;DHT22;36730;49.036;9.094;2023-04-24T02:43:14;22.70;58.30
47174;DHT22;36730;49.036;9.094;2023-04-24T02:45:40;22.70;58.30
47174;DHT22;36730;49.036;9.094;2023-04-24T02:48:05;22.70;58.40
47174;DHT22;36730;49.036;9.094;2023-04-24T02:50:30;22.70;58.40
47174;DHT22;36730;49.036;9.094;2023-04-24T02:52:57;22.70;58.30
47174;DHT22;36730;49.036;9.094;2023-04-24T02:55:22;22.70;58.30
47174;DHT22;36730;49.036;9.094;2023-04-24T02:57:47;22.70;58.30
47174;DHT22;36730;49.036;9.094;2023-04-24T03:00:13;22.70;58.30
47174;DHT22;36730;49.036;9.094;2023-04-24T03:02:38;22.70;58.30
47174;DHT22;36730;49.036;9.094;2023-04-24T03:05:04;22.70;58.30
47174;DHT22;36730;49.036;9.094;2023-04-24T03:07:30;22.70;58.50
47174;DHT22;36730;49.036;9.094;2023-04-24T03:09:56;22.70;58.30
47174;DHT22;36730;49.036;9.094;2023-04-24T03:12:23;22.70;58.30
47174;DHT22;36730;49.036;9.094;2023-04-24T03:14:49;22.70;58.40
47174;DHT22;36730;49.036;9.094;2023-04-24T03:17:14;22.70;58.40
47174;DHT22;36730;49.036;9.094;2023-04-24T03:19:40;22.70;58.40
47174;DHT22;36730;49.036;9.094;2023-04-24T03:22:06;22.70;58.30
47174;DHT22;36730;49.036;9.094;2023-04-24T03:24:31;22.70;58.40
47174;DHT22;36730;49.036;9.094;2023-04-24T03:26:57;22.70;58.40
47174;DHT22;36730;49.036;9.094;2023-04-24T03:29:22;22.70;58.50
47174;DHT22;36730;49.036;9.094;2023-04-24T03:31:48;22.70;58.50
47174;DHT22;36730;49.036;9.094;2023-04-24T03:34:13;22.70;58.50
47174;DHT22;36730;49.036;9.094;2023-04-24T03:36:39;22.60;58.50
47174;DHT22;36730;49.036;9.094;2023-04-24T03:39:04;22.70;58.50
47174;DHT22;36730;49.036;9.094;2023-04-24T03:41:30;22.70;58.50
47174;DHT22;36730;49.036;9.094;2023-04-24T03:43:56;22.70;58.40
47174;DHT22;36730;49.036;9.094;2023-04-24T03:46:21;22.70;58.60
47174;DHT22;36730;49.036;9.094;2023-04-24T03:48:47;22.70;58.50
47174;DHT22;36730;49.036;9.094;2023-04-24T03:51:12;22.70;58.60
47174;DHT22;36730;49.036;9.094;2023-04-24T03:53:37;22.70;58.80
47174;DHT22;36730;49.036;9.094;2023-04-24T03:56:03;22.80;58.80
47174;DHT22;36730;49.036;9.094;2023-04-24T03:58:28;22.70;58.70
47174;DHT22;36730;49.036;9.094;2023-04-24T04:00:54;22.70;58.90
47174;DHT22;36730;49.036;9.094;2023-04-24T04:03:22;22.70;59.00
47174;DHT22;36730;49.036;9.094;2023-04-24T04:05:47;22.70;58.90
47174;DHT22;36730;49.036;9.094;2023-04-24T04:08:13;22.70;59.00
47174;DHT22;36730;49.036;9.094;2023-04-24T04:10:38;22.70;59.30
47174;DHT22;36730;49.036;9.094;2023-04-24T04:13:04;22.70;59.30
47174;DHT22;36730;49.036;9.094;2023-04-24T04:15:29;22.70;59.30
47174;DHT22;36730;49.036;9.094;2023-04-24T04:17:55;22.70;59.20
47174;DHT22;36730;49.036;9.094;2023-04-24T04:20:20;22.80;59.40
47174;DHT22;36730;49.036;9.094;2023-04-24T04:22:45;22.70;59.50
47174;DHT22;36730;49.036;9.094;2023-04-24T04:25:11;22.70;59.30
47174;DHT22;36730;49.036;9.094;2023-04-24T04:27:38;22.70;59.50
47174;DHT22;36730;49.036;9.094;2023-04-24T04:30:04;22.80;59.50
47174;DHT22;36730;49.036;9.094;2023-04-24T04:32:33;22.80;59.70
47174;DHT22;36730;49.036;9.094;2023-04-24T04:34:59;22.80;60.10
47174;DHT22;36730;49.036;9.094;2023-04-24T04:37:34;22.80;59.80
47174;DHT22;36730;49.036;9.094;2023-04-24T04:39:59;22.80;59.90
47174;DHT22;36730;49.036;9.094;2023-04-24T04:42:25;22.80;60.00
47174;DHT22;36730;49.036;9.094;2023-04-24T04:44:52;22.80;60.00
47174;DHT22;36730;49.036;9.094;2023-04-24T04:47:17;22.80;60.00
47174;DHT22;36730;49.036;9.094;2023-04-24T04:49:43;22.80;60.10
47174;DHT22;36730;49.036;9.094;2023-04-24T04:52:09;22.90;60.00
47174;DHT22;36730;49.036;9.094;2023-04-24T04:54:35;22.80;60.50
47174;DHT22;36730;49.036;9.094;2023-04-24T04:57:00;22.90;60.20
47174;DHT22;36730;49.036;9.094;2023-04-24T04:59:26;22.90;60.20
47174;DHT22;36730;49.036;9.094;2023-04-24T05:01:52;22.90;60.50
47174;DHT22;36730;49.036;9.094;2023-04-24T05:04:17;23.00;60.20
47174;DHT22;36730;49.036;9.094;2023-04-24T05:06:43;22.90;60.10
47174;DHT22;36730;49.036;9.094;2023-04-24T05:09:09;23.00;60.50
47174;DHT22;36730;49.036;9.094;2023-04-24T05:11:34;23.00;60.00
47174;DHT22;36730;49.036;9.094;2023-04-24T05:14:00;23.00;60.20
47174;DHT22;36730;49.036;9.094;2023-04-24T05:16:26;23.00;60.10
47174;DHT22;36730;49.036;9.094;2023-04-24T05:18:51;23.00;60.30
47174;DHT22;36730;49.036;9.094;2023-04-24T05:21:17;23.00;60.30
47174;DHT22;36730;49.036;9.094;2023-04-24T05:23:42;23.00;60.10
47174;DHT22;36730;49.036;9.094;2023-04-24T05:26:08;23.10;60.30
47174;DHT22;36730;49.036;9.094;2023-04-24T05:28:33;23.10;60.00
47174;DHT22;36730;49.036;9.094;2023-04-24T05:31:02;23.10;60.30
47174;DHT22;36730;49.036;9.094;2023-04-24T05:33:27;23.10;60.00
47174;DHT22;36730;49.036;9.094;2023-04-24T05:35:53;23.10;60.00
47174;DHT22;36730;49.036;9.094;2023-04-24T05:38:18;23.10;60.70
47174;DHT22;36730;49.036;9.094;2023-04-24T05:40:45;23.10;60.20
47174;DHT22;36730;49.036;9.094;2023-04-24T05:43:10;23.10;60.00
47174;DHT22;36730;49.036;9.094;2023-04-24T05:45:36;23.10;60.20
47174;DHT22;36730;49.036;9.094;2023-04-24T05:48:02;23.10;60.40
47174;DHT22;36730;49.036;9.094;2023-04-24T05:50:27;23.10;60.10
47174;DHT22;36730;49.036;9.094;2023-04-24T05:52:53;23.20;60.70
47174;DHT22;36730;49.036;9.094;2023-04-24T05:55:19;23.20;60.60
47174;DHT22;36730;49.036;9.094;2023-04-24T05:57:44;23.20;60.70
47174;DHT22;36730;49.036;9.094;2023-04-24T06:00:11;23.30;60.70
47174;DHT22;36730;49.036;9.094;2023-04-24T06:02:37;23.30;60.80
47174;DHT22;36730;49.036;9.094;2023-04-24T06:05:03;23.20;60.30
47174;DHT22;36730;49.036;9.094;2023-04-24T06:07:30;23.30;60.50
47174;DHT22;36730;49.036;9.094;2023-04-24T06:09:55;23.30;60.70
47174;DHT22;36730;49.036;9.094;2023-04-24T06:12:22;23.30;60.50
47174;DHT22;36730;49.036;9.094;2023-04-24T06:14:47;23.40;60.30
47174;DHT22;36730;49.036;9.094;2023-04-24T06:17:13;23.40;60.60
47174;DHT22;36730;49.036;9.094;2023-04-24T06:19:38;23.40;60.60
47174;DHT22;36730;49.036;9.094;2023-04-24T06:22:04;23.50;61.00
47174;DHT22;36730;49.036;9.094;2023-04-24T06:24:29;23.50;61.00
47174;DHT22;36730;49.036;9.094;2023-04-24T06:26:55;23.50;61.10
47174;DHT22;36730;49.036;9.094;2023-04-24T06:29:22;23.60;61.50
47174;DHT22;36730;49.036;9.094;2023-04-24T06:31:47;23.60;61.00
47174;DHT22;36730;49.036;9.094;2023-04-24T06:34:13;23.60;61.10
47174;DHT22;36730;49.036;9.094;2023-04-24T06:36:39;23.60;61.00
47174;DHT22;36730;49.036;9.094;2023-04-24T06:39:04;23.70;61.40
47174;DHT22;36730;49.036;9.094;2023-04-24T06:41:30;23.70;61.20
47174;DHT22;36730;49.036;9.094;2023-04-24T06:43:55;23.70;61.20
47174;DHT22;36730;49.036;9.094;2023-04-24T06:46:21;23.80;61.20
47174;DHT22;36730;49.036;9.094;2023-04-24T06:48:51;23.80;60.90
47174;DHT22;36730;49.036;9.094;2023-04-24T06:51:17;23.80;61.20
47174;DHT22;36730;49.036;9.094;2023-04-24T06:53:43;23.80;61.20
47174;DHT22;36730;49.036;9.094;2023-04-24T06:56:09;23.90;61.20
47174;DHT22;36730;49.036;9.094;2023-04-24T06:58:37;23.90;61.10
47174;DHT22;36730;49.036;9.094;2023-04-24T07:01:03;23.90;61.20
47174;DHT22;36730;49.036;9.094;2023-04-24T07:03:29;24.00;61.10
47174;DHT22;36730;49.036;9.094;2023-04-24T07:05:54;24.00;61.30
47174;DHT22;36730;49.036;9.094;2023-04-24T07:08:20;24.00;61.00
47174;DHT22;36730;49.036;9.094;2023-04-24T07:10:47;24.00;60.90
47174;DHT22;36730;49.036;9.094;2023-04-24T07:13:12;24.00;61.00
47174;DHT22;36730;49.036;9.094;2023-04-24T07:15:38;24.00;60.80
47174;DHT22;36730;49.036;9.094;2023-04-24T07:18:04;24.10;61.00
47174;DHT22;36730;49.036;9.094;2023-04-24T07:20:29;24.20;61.20
47174;DHT22;36730;49.036;9.094;2023-04-24T07:22:55;24.20;61.30
47174;DHT22;36730;49.036;9.094;2023-04-24T07:25:20;24.20;60.90
47174;DHT22;36730;49.036;9.094;2023-04-24T07:27:46;24.20;60.60
47174;DHT22;36730;49.036;9.094;2023-04-24T07:30:11;24.20;60.50
47174;DHT22;36730;49.036;9.094;2023-04-24T07:32:37;24.20;60.60
47174;DHT22;36730;49.036;9.094;2023-04-24T07:35:02;24.20;60.40
47174;DHT22;36730;49.036;9.094;2023-04-24T07:37:28;24.20;60.20
47174;DHT22;36730;49.036;9.094;2023-04-24T07:39:54;24.20;59.60
47174;DHT22;36730;49.036;9.094;2023-04-24T07:42:20;24.20;59.50
47174;DHT22;36730;49.036;9.094;2023-04-24T07:44:45;24.20;60.00
47174;DHT22;36730;49.036;9.094;2023-04-24T07:47:12;24.10;58.90
47174;DHT22;36730;49.036;9.094;2023-04-24T07:49:40;24.10;58.90
47174;DHT22;36730;49.036;9.094;2023-04-24T07:52:06;24.20;58.40
47174;DHT22;36730;49.036;9.094;2023-04-24T07:54:31;24.10;58.10
47174;DHT22;36730;49.036;9.094;2023-04-24T07:56:57;24.20;58.80
47174;DHT22;36730;49.036;9.094;2023-04-24T07:59:22;24.10;57.60
47174;DHT22;36730;49.036;9.094;2023-04-24T08:01:48;24.10;57.20
47174;DHT22;36730;49.036;9.094;2023-04-24T08:04:13;24.10;57.50
47174;DHT22;36730;49.036;9.094;2023-04-24T08:06:39;24.20;56.20
47174;DHT22;36730;49.036;9.094;2023-04-24T08:09:05;24.20;56.30
47174;DHT22;36730;49.036;9.094;2023-04-24T08:11:30;24.20;57.30
47174;DHT22;36730;49.036;9.094;2023-04-24T08:13:56;24.30;57.70
47174;DHT22;36730;49.036;9.094;2023-04-24T08:16:21;24.30;56.40
47174;DHT22;36730;49.036;9.094;2023-04-24T08:18:48;24.30;57.00
47174;DHT22;36730;49.036;9.094;2023-04-24T08:21:14;24.20;56.00
47174;DHT22;36730;49.036;9.094;2023-04-24T08:23:42;24.30;56.70
47174;DHT22;36730;49.036;9.094;2023-04-24T08:26:08;24.30;56.40
47174;DHT22;36730;49.036;9.094;2023-04-24T08:28:33;24.30;56.40
47174;DHT22;36730;49.036;9.094;2023-04-24T08:30:59;24.30;55.70
47174;DHT22;36730;49.036;9.094;2023-04-24T08:33:24;24.40;56.40
47174;DHT22;36730;49.036;9.094;2023-04-24T08:35:50;24.40;56.50
47174;DHT22;36730;49.036;9.094;2023-04-24T08:38:16;24.40;56.20
47174;DHT22;36730;49.036;9.094;2023-04-24T08:40:41;24.50;56.00
47174;DHT22;36730;49.036;9.094;2023-04-24T08:43:07;24.40;56.00
47174;DHT22;36730;49.036;9.094;2023-04-24T08:45:33;24.50;55.60
47174;DHT22;36730;49.036;9.094;2023-04-24T08:47:59;24.40;55.30
47174;DHT22;36730;49.036;9.094;2023-04-24T08:50:25;24.40;55.10
47174;DHT22;36730;49.036;9.094;2023-04-24T08:52:51;24.40;54.70
47174;DHT22;36730;49.036;9.094;2023-04-24T08:55:19;24.40;54.40
47174;DHT22;36730;49.036;9.094;2023-04-24T08:57:45;24.40;55.40
47174;DHT22;36730;49.036;9.094;2023-04-24T09:00:11;24.40;55.40
47174;DHT22;36730;49.036;9.094;2023-04-24T09:02:39;24.50;55.30
47174;DHT22;36730;49.036;9.094;2023-04-24T09:05:05;24.60;55.10
47174;DHT22;36730;49.036;9.094;2023-04-24T09:07:31;24.60;55.30
47174;DHT22;36730;49.036;9.094;2023-04-24T09:09:59;24.70;55.20
47174;DHT22;36730;49.036;9.094;2023-04-24T09:12:26;24.70;55.20
47174;DHT22;36730;49.036;9.094;2023-04-24T09:14:51;24.80;55.00
47174;DHT22;36730;49.036;9.094;2023-04-24T09:17:17;24.80;55.20
47174;DHT22;36730;49.036;9.094;2023-04-24T09:19:43;24.80;55.10
47174;DHT22;36730;49.036;9.094;2023-04-24T09:22:08;24.90;54.90
47174;DHT22;36730;49.036;9.094;2023-04-24T09:24:34;24.80;53.70
47174;DHT22;36730;49.036;9.094;2023-04-24T09:27:00;24.80;54.10
47174;DHT22;36730;49.036;9.094;2023-04-24T09:29:29;24.80;54.10
47174;DHT22;36730;49.036;9.094;2023-04-24T09:31:54;24.80;54.80
47174;DHT22;36730;49.036;9.094;2023-04-24T09:34:24;24.80;55.10
47174;DHT22;36730;49.036;9.094;2023-04-24T09:36:50;24.80;55.40
47174;DHT22;36730;49.036;9.094;2023-04-24T09:39:16;24.90;54.90
47174;DHT22;36730;49.036;9.094;2023-04-24T09:41:53;24.90;55.20
47174;DHT22;36730;49.036;9.094;2023-04-24T09:44:19;25.00;55.60
47174;DHT22;36730;49.036;9.094;2023-04-24T09:46:49;25.00;55.10
47174;DHT22;36730;49.036;9.094;2023-04-24T09:49:16;25.00;52.50
47174;DHT22;36730;49.036;9.094;2023-04-24T09:51:41;24.70;54.30
47174;DHT22;36730;49.036;9.094;2023-04-24T09:54:20;24.70;53.50
47174;DHT22;36730;49.036;9.094;2023-04-24T09:56:47;24.70;53.70
47174;DHT22;36730;49.036;9.094;2023-04-24T09:59:21;24.80;54.00
47174;DHT22;36730;49.036;9.094;2023-04-24T10:01:47;24.80;53.60
47174;DHT22;36730;49.036;9.094;2023-04-24T10:04:15;24.90;53.10
47174;DHT22;36730;49.036;9.094;2023-04-24T10:06:41;24.90;52.70
47174;DHT22;36730;49.036;9.094;2023-04-24T10:09:07;24.90;52.90
47174;DHT22;36730;49.036;9.094;2023-04-24T10:11:33;25.00;53.20
47174;DHT22;36730;49.036;9.094;2023-04-24T10:13:58;25.00;52.80
47174;DHT22;36730;49.036;9.094;2023-04-24T10:16:24;25.00;52.70
47174;DHT22;36730;49.036;9.094;2023-04-24T10:18:52;25.00;52.80
47174;DHT22;36730;49.036;9.094;2023-04-24T10:21:17;25.00;52.50
47174;DHT22;36730;49.036;9.094;2023-04-24T10:23:43;25.00;52.80
47174;DHT22;36730;49.036;9.094;2023-04-24T10:26:14;25.00;52.80
47174;DHT22;36730;49.036;9.094;2023-04-24T10:28:44;25.00;51.40
47174;DHT22;36730;49.036;9.094;2023-04-24T10:31:10;25.00;51.90
47174;DHT22;36730;49.036;9.094;2023-04-24T10:33:36;25.10;52.50
47174;DHT22;36730;49.036;9.094;2023-04-24T10:36:01;25.10;52.60
47174;DHT22;36730;49.036;9.094;2023-04-24T10:38:27;25.10;52.30
47174;DHT22;36730;49.036;9.094;2023-04-24T10:40:57;25.20;52.20
47174;DHT22;36730;49.036;9.094;2023-04-24T10:43:22;25.20;52.40
47174;DHT22;36730;49.036;9.094;2023-04-24T10:46:06;25.30;52.20
47174;DHT22;36730;49.036;9.094;2023-04-24T10:48:33;25.30;52.40
47174;DHT22;36730;49.036;9.094;2023-04-24T10:50:58;25.30;52.30
47174;DHT22;36730;49.036;9.094;2023-04-24T10:53:24;25.40;52.30
47174;DHT22;36730;49.036;9.094;2023-04-24T10:55:57;25.40;52.20
47174;DHT22;36730;49.036;9.094;2023-04-24T10:58:23;25.50;52.10
47174;DHT22;36730;49.036;9.094;2023-04-24T11:00:58;25.40;50.60
47174;DHT22;36730;49.036;9.094;2023-04-24T11:03:28;25.20;50.40
47174;DHT22;36730;49.036;9.094;2023-04-24T11:10:58;24.00;49.10
47174;DHT22;36730;49.036;9.094;2023-04-24T11:13:24;23.60;48.80
47174;DHT22;36730;49.036;9.094;2023-04-24T11:18:38;23.80;49.60
47174;DHT22;36730;49.036;9.094;2023-04-24T11:21:11;23.90;49.40
47174;DHT22;36730;49.036;9.094;2023-04-24T11:23:37;24.00;49.50
47174;DHT22;36730;49.036;9.094;2023-04-24T11:28:43;24.30;49.60
47174;DHT22;36730;49.036;9.094;2023-04-24T11:33:53;24.40;49.30
47174;DHT22;36730;49.036;9.094;2023-04-24T11:36:19;24.50;49.10
47174;DHT22;36730;49.036;9.094;2023-04-24T11:38:44;24.70;49.10
47174;DHT22;36730;49.036;9.094;2023-04-24T11:41:10;24.70;49.20
47174;DHT22;36730;49.036;9.094;2023-04-24T11:43:36;24.80;49.60
47174;DHT22;36730;49.036;9.094;2023-04-24T11:46:02;24.90;49.50
47174;DHT22;36730;49.036;9.094;2023-04-24T11:48:27;25.00;49.40
47174;DHT22;36730;49.036;9.094;2023-04-24T11:50:53;25.10;49.20
47174;DHT22;36730;49.036;9.094;2023-04-24T11:53:19;25.10;49.50
47174;DHT22;36730;49.036;9.094;2023-04-24T11:55:46;25.10;49.10
47174;DHT22;36730;49.036;9.094;2023-04-24T11:58:12;25.10;49.50
47174;DHT22;36730;49.036;9.094;2023-04-24T12:00:37;25.10;49.30
47174;DHT22;36730;49.036;9.094;2023-04-24T12:03:04;25.20;49.60
47174;DHT22;36730;49.036;9.094;2023-04-24T12:05:30;25.20;49.80
47174;DHT22;36730;49.036;9.094;2023-04-24T12:07:56;25.30;49.90
47174;DHT22;36730;49.036;9.094;2023-04-24T12:10:22;25.30;49.70
47174;DHT22;36730;49.036;9.094;2023-04-24T12:12:49;25.40;49.80
47174;DHT22;36730;49.036;9.094;2023-04-24T12:15:17;25.30;49.90
47174;DHT22;36730;49.036;9.094;2023-04-24T12:17:42;25.40;49.90
47174;DHT22;36730;49.036;9.094;2023-04-24T12:20:08;25.40;50.00
47174;DHT22;36730;49.036;9.094;2023-04-24T12:25:10;25.40;50.60
47174;DHT22;36730;49.036;9.094;2023-04-24T12:27:36;25.40;50.40
47174;DHT22;36730;49.036;9.094;2023-04-24T12:30:03;25.40;50.20
47174;DHT22;36730;49.036;9.094;2023-04-24T12:32:28;25.40;50.60
47174;DHT22;36730;49.036;9.094;2023-04-24T12:34:54;25.40;50.50
47174;DHT22;36730;49.036;9.094;2023-04-24T12:37:21;25.30;51.10
47174;DHT22;36730;49.036;9.094;2023-04-24T12:40:00;25.20;51.20
47174;DHT22;36730;49.036;9.094;2023-04-24T12:42:29;25.20;52.10
47174;DHT22;36730;49.036;9.094;2023-04-24T12:44:56;25.10;52.20
47174;DHT22;36730;49.036;9.094;2023-04-24T12:47:21;25.10;52.50
47174;DHT22;36730;49.036;9.094;2023-04-24T12:49:47;25.10;52.50
47174;DHT22;36730;49.036;9.094;2023-04-24T12:52:14;25.20;51.40
47174;DHT22;36730;49.036;9.094;2023-04-24T12:54:39;25.30;51.40
47174;DHT22;36730;49.036;9.094;2023-04-24T12:57:05;25.30;51.70
47174;DHT22;36730;49.036;9.094;2023-04-24T12:59:30;25.30;51.60
47174;DHT22;36730;49.036;9.094;2023-04-24T13:01:56;25.40;51.50
47174;DHT22;36730;49.036;9.094;2023-04-24T13:04:21;25.40;51.70
47174;DHT22;36730;49.036;9.094;2023-04-24T13:06:47;25.50;51.50
47174;DHT22;36730;49.036;9.094;2023-04-24T13:09:12;25.50;51.80
47174;DHT22;36730;49.036;9.094;2023-04-24T13:11:38;25.60;51.60
47174;DHT22;36730;49.036;9.094;2023-04-24T13:14:03;25.60;51.40
47174;DHT22;36730;49.036;9.094;2023-04-24T13:16:29;25.60;51.50
47174;DHT22;36730;49.036;9.094;2023-04-24T13:18:54;25.60;51.80
47174;DHT22;36730;49.036;9.094;2023-04-24T13:21:20;25.70;51.50
47174;DHT22;36730;49.036;9.094;2023-04-24T13:23:45;25.70;51.30
47174;DHT22;36730;49.036;9.094;2023-04-24T13:26:10;25.80;51.10
47174;DHT22;36730;49.036;9.094;2023-04-24T13:28:36;25.80;51.40
47174;DHT22;36730;49.036;9.094;2023-04-24T13:31:03;25.80;50.90
47174;DHT22;36730;49.036;9.094;2023-04-24T13:33:29;25.80;51.20
47174;DHT22;36730;49.036;9.094;2023-04-24T13:35:54;25.90;51.10
47174;DHT22;36730;49.036;9.094;2023-04-24T13:38:20;25.90;51.10
47174;DHT22;36730;49.036;9.094;2023-04-24T13:40:47;25.90;51.00
47174;DHT22;36730;49.036;9.094;2023-04-24T13:43:13;26.00;51.30
47174;DHT22;36730;49.036;9.094;2023-04-24T13:45:38;26.00;51.20
47174;DHT22;36730;49.036;9.094;2023-04-24T13:48:03;26.00;50.90
47174;DHT22;36730;49.036;9.094;2023-04-24T13:50:29;26.10;50.90
47174;DHT22;36730;49.036;9.094;2023-04-24T13:52:55;26.10;51.00
47174;DHT22;36730;49.036;9.094;2023-04-24T13:55:22;26.10;51.10
47174;DHT22;36730;49.036;9.094;2023-04-24T13:57:47;26.10;51.20
47174;DHT22;36730;49.036;9.094;2023-04-24T14:00:13;26.20;51.30
47174;DHT22;36730;49.036;9.094;2023-04-24T14:02:38;26.20;51.30
47174;DHT22;36730;49.036;9.094;2023-04-24T14:05:04;26.20;51.20
47174;DHT22;36730;49.036;9.094;2023-04-24T14:07:31;26.20;51.40
47174;DHT22;36730;49.036;9.094;2023-04-24T14:09:57;26.30;52.10
47174;DHT22;36730;49.036;9.094;2023-04-24T14:12:22;26.30;51.60
47174;DHT22;36730;49.036;9.094;2023-04-24T14:14:48;26.30;51.80
47174;DHT22;36730;49.036;9.094;2023-04-24T14:17:13;26.30;52.10
47174;DHT22;36730;49.036;9.094;2023-04-24T14:19:39;26.30;51.50
47174;DHT22;36730;49.036;9.094;2023-04-24T14:22:04;26.30;51.80
47174;DHT22;36730;49.036;9.094;2023-04-24T14:24:30;26.30;52.10
47174;DHT22;36730;49.036;9.094;2023-04-24T14:26:55;26.30;51.80
47174;DHT22;36730;49.036;9.094;2023-04-24T14:29:21;26.40;51.80
47174;DHT22;36730;49.036;9.094;2023-04-24T14:31:47;26.40;52.10
47174;DHT22;36730;49.036;9.094;2023-04-24T14:34:13;26.40;52.00
47174;DHT22;36730;49.036;9.094;2023-04-24T14:36:38;26.40;52.20
47174;DHT22;36730;49.036;9.094;2023-04-24T14:39:04;26.50;52.80
47174;DHT22;36730;49.036;9.094;2023-04-24T14:41:32;26.40;52.00
47174;DHT22;36730;49.036;9.094;2023-04-24T14:43:58;26.40;52.00
47174;DHT22;36730;49.036;9.094;2023-04-24T14:46:24;26.40;51.80
47174;DHT22;36730;49.036;9.094;2023-04-24T14:48:50;26.40;52.50
47174;DHT22;36730;49.036;9.094;2023-04-24T14:51:15;26.40;52.30
47174;DHT22;36730;49.036;9.094;2023-04-24T14:53:41;26.40;52.30
47174;DHT22;36730;49.036;9.094;2023-04-24T14:56:06;26.50;51.80
47174;DHT22;36730;49.036;9.094;2023-04-24T14:58:31;26.40;51.40
47174;DHT22;36730;49.036;9.094;2023-04-24T15:00:57;26.50;51.30
47174;DHT22;36730;49.036;9.094;2023-04-24T15:03:23;26.50;51.70
47174;DHT22;36730;49.036;9.094;2023-04-24T15:05:49;26.50;51.60
47174;DHT22;36730;49.036;9.094;2023-04-24T15:08:15;26.60;51.40
47174;DHT22;36730;49.036;9.094;2023-04-24T15:10:41;26.60;51.60
47174;DHT22;36730;49.036;9.094;2023-04-24T15:13:06;26.60;51.70
47174;DHT22;36730;49.036;9.094;2023-04-24T15:15:31;26.60;50.90
47174;DHT22;36730;49.036;9.094;2023-04-24T15:17:57;26.50;50.90
47174;DHT22;36730;49.036;9.094;2023-04-24T15:20:22;26.60;50.80
47174;DHT22;36730;49.036;9.094;2023-04-24T15:22:48;26.50;50.30
47174;DHT22;36730;49.036;9.094;2023-04-24T15:25:13;26.50;50.60
47174;DHT22;36730;49.036;9.094;2023-04-24T15:27:39;26.50;50.50
47174;DHT22;36730;49.036;9.094;2023-04-24T15:30:05;26.50;50.60
47174;DHT22;36730;49.036;9.094;2023-04-24T15:32:31;26.60;50.30
47174;DHT22;36730;49.036;9.094;2023-04-24T15:34:56;26.60;50.20
47174;DHT22;36730;49.036;9.094;2023-04-24T15:37:22;26.60;50.00